Time;durP1;ratioP1;P1;durP2;ratioP2;P2;SDS_P1;SDS_P2;PMS_P1;PMS_P2;Temp;Humidity;BMP_temperature;BMP_pressure;BME280_temperature;BME280_humidity;BME280_pressure;Samples;Min_cycle;Max_cycle;Signal;HPM_P1;HPM_P2
2023/01/20 00:02:11;;;;;;;;;;;-0.20;99.90;;;;;;5051501;28;19920;-86
2023/01/20 00:04:37;;;;;;;;;;;-0.20;99.90;;;;;;5052333;28;19909;-86
2023/01/20 00:07:03;;;;;;;;;;;-0.20;99.90;;;;;;5031863;28;19996;-86
2023/01/20 00:09:29;;;;;;;;;;;-0.20;99.90;;;;;;5032973;28;19909;-87
2023/01/20 00:11:55;;;;;;;;;;;-0.30;99.90;;;;;;5049359;28;19932;-85
2023/01/20 00:14:23;;;;;;;;;;;-0.30;99.90;;;;;;5035459;28;19913;-86
2023/01/20 00:16:49;;;;;;;;;;;-0.50;99.90;;;;;;5051743;28;19916;-87
2023/01/20 00:19:16;;;;;;;;;;;-0.50;99.90;;;;;;5051138;28;19909;-87
2023/01/20 00:21:42;;;;;;;;;;;-0.50;99.90;;;;;;5052413;28;19917;-87
2023/01/20 00:24:08;;;;;;;;;;;-0.50;99.90;;;;;;5053639;28;19916;-86
2023/01/20 00:26:34;;;;;;;;;;;-0.50;99.90;;;;;;5054871;28;19919;-86
2023/01/20 00:29:00;;;;;;;;;;;-0.50;99.90;;;;;;5052138;28;19940;-86
2023/01/20 00:31:27;;;;;;;;;;;-0.50;99.90;;;;;;5037182;28;19920;-84
2023/01/20 00:33:55;;;;;;;;;;;-0.50;99.90;;;;;;5035210;28;19916;-86
2023/01/20 00:36:21;;;;;;;;;;;-0.50;99.90;;;;;;5055513;28;20230;-86
2023/01/20 00:38:47;;;;;;;;;;;-0.60;99.90;;;;;;5070334;28;19901;-86
2023/01/20 00:41:14;;;;;;;;;;;-0.60;99.90;;;;;;5073469;28;19913;-85
2023/01/20 00:43:40;;;;;;;;;;;-0.60;99.90;;;;;;5053054;28;19916;-84
2023/01/20 00:46:06;;;;;;;;;;;-0.50;99.90;;;;;;5055727;28;19912;-85
2023/01/20 00:48:32;;;;;;;;;;;-0.50;99.90;;;;;;5038388;28;19916;-84
2023/01/20 00:50:59;;;;;;;;;;;-0.50;99.90;;;;;;5049096;28;19916;-84
2023/01/20 00:53:25;;;;;;;;;;;-0.40;99.90;;;;;;5048275;28;19928;-86
2023/01/20 00:55:51;;;;;;;;;;;-0.50;99.90;;;;;;5055531;28;19909;-85
2023/01/20 00:58:17;;;;;;;;;;;-0.50;99.90;;;;;;5033148;28;19917;-85
2023/01/20 01:00:45;;;;;;;;;;;-0.50;99.90;;;;;;5052919;28;19974;-84
2023/01/20 01:03:11;;;;;;;;;;;-0.50;99.90;;;;;;5054331;28;19923;-84
2023/01/20 01:05:37;;;;;;;;;;;-0.50;99.90;;;;;;5055121;28;20361;-85
2023/01/20 01:08:03;;;;;;;;;;;-0.60;99.90;;;;;;5053466;28;19956;-84
2023/01/20 01:10:29;;;;;;;;;;;-0.60;99.90;;;;;;5059514;28;19915;-84
2023/01/20 01:12:57;;;;;;;;;;;-0.50;99.90;;;;;;5065574;28;19967;-85
2023/01/20 01:15:23;;;;;;;;;;;-0.50;99.90;;;;;;5065431;28;19909;-84
2023/01/20 01:17:50;;;;;;;;;;;-0.50;99.90;;;;;;5060083;28;20022;-85
2023/01/20 01:20:16;;;;;;;;;;;-0.50;99.90;;;;;;5054953;28;20073;-84
2023/01/20 01:22:42;;;;;;;;;;;-0.40;99.90;;;;;;5055532;28;19912;-85
2023/01/20 01:25:08;;;;;;;;;;;-0.40;99.90;;;;;;5053286;28;19909;-84
2023/01/20 01:27:34;;;;;;;;;;;-0.40;99.90;;;;;;5053495;28;19913;-84
2023/01/20 01:30:00;;;;;;;;;;;-0.40;99.90;;;;;;5054243;28;19913;-83
2023/01/20 01:32:26;;;;;;;;;;;-0.40;99.90;;;;;;5054704;28;19951;-84
2023/01/20 01:34:52;;;;;;;;;;;-0.30;99.90;;;;;;5047044;28;19909;-85
2023/01/20 01:37:18;;;;;;;;;;;-0.40;99.90;;;;;;5053068;28;19909;-84
2023/01/20 01:39:44;;;;;;;;;;;-0.30;99.90;;;;;;5055454;28;20384;-85
2023/01/20 01:42:11;;;;;;;;;;;-0.30;99.90;;;;;;5047736;28;19947;-85
2023/01/20 01:44:38;;;;;;;;;;;-0.30;99.90;;;;;;5055179;28;19908;-84
2023/01/20 01:47:04;;;;;;;;;;;-0.30;99.90;;;;;;5053133;28;19908;-83
2023/01/20 01:49:31;;;;;;;;;;;-0.30;99.90;;;;;;5054091;28;19919;-85
2023/01/20 01:52:00;;;;;;;;;;;-0.30;99.90;;;;;;5054245;28;19905;-85
2023/01/20 01:54:28;;;;;;;;;;;-0.30;99.90;;;;;;5054218;28;20326;-85
2023/01/20 01:56:54;;;;;;;;;;;-0.30;99.90;;;;;;5053541;28;19908;-86
2023/01/20 01:59:20;;;;;;;;;;;-0.30;99.90;;;;;;5052848;28;19913;-84
2023/01/20 02:01:48;;;;;;;;;;;-0.30;99.90;;;;;;5054674;28;20342;-85
2023/01/20 02:04:16;;;;;;;;;;;-0.30;99.90;;;;;;5053483;28;19920;-85
2023/01/20 02:06:43;;;;;;;;;;;-0.30;99.90;;;;;;5052666;28;19913;-83
2023/01/20 02:09:09;;;;;;;;;;;-0.30;99.90;;;;;;5050112;28;19912;-85
2023/01/20 02:11:38;;;;;;;;;;;-0.30;99.90;;;;;;5047432;28;20011;-80
2023/01/20 02:14:05;;;;;;;;;;;-0.30;99.90;;;;;;5049913;28;20277;-85
2023/01/20 02:16:49;;;;;;;;;;;-0.30;99.90;;;;;;5047917;28;19909;-81
2023/01/20 02:19:15;;;;;;;;;;;-0.30;99.90;;;;;;5052006;28;19939;-85
2023/01/20 02:21:44;;;;;;;;;;;-0.30;99.90;;;;;;5056346;28;19917;-85
2023/01/20 02:24:26;;;;;;;;;;;-0.30;99.90;;;;;;5060321;28;19916;-85
2023/01/20 02:27:02;;;;;;;;;;;-0.20;99.90;;;;;;5031478;28;19917;-83
2023/01/20 02:29:31;;;;;;;;;;;-0.20;99.90;;;;;;5034140;28;19909;-85
2023/01/20 02:32:15;;;;;;;;;;;-0.20;99.90;;;;;;5034118;28;19920;-85
2023/01/20 02:34:41;;;;;;;;;;;-0.30;99.90;;;;;;5042771;28;19909;-83
2023/01/20 02:37:15;;;;;;;;;;;-0.30;99.90;;;;;;5051542;28;19905;-84
2023/01/20 02:39:44;;;;;;;;;;;-0.30;99.90;;;;;;5052214;28;19908;-84
2023/01/20 02:42:14;;;;;;;;;;;-0.30;99.90;;;;;;5052962;28;19916;-83
2023/01/20 02:44:50;;;;;;;;;;;-0.30;99.90;;;;;;5053423;28;19916;-84
2023/01/20 02:47:35;;;;;;;;;;;-0.30;99.90;;;;;;5050008;28;19915;-85
2023/01/20 02:50:12;;;;;;;;;;;-0.30;99.90;;;;;;5047059;28;20086;-84
2023/01/20 02:52:41;;;;;;;;;;;-0.30;99.90;;;;;;5052334;28;20384;-85
2023/01/20 02:55:18;;;;;;;;;;;-0.40;99.90;;;;;;5053042;28;20377;-85
2023/01/20 02:57:46;;;;;;;;;;;-0.40;99.90;;;;;;5053222;28;19909;-84
2023/01/20 03:00:15;;;;;;;;;;;-0.40;99.90;;;;;;5044910;28;19924;-84
2023/01/20 03:02:43;;;;;;;;;;;-0.40;99.90;;;;;;5046085;28;19940;-85
2023/01/20 03:05:11;;;;;;;;;;;-0.40;99.90;;;;;;5033198;28;20238;-84
2023/01/20 03:07:39;;;;;;;;;;;-0.40;99.90;;;;;;5045984;28;19916;-84
2023/01/20 03:10:06;;;;;;;;;;;-0.50;99.90;;;;;;5050654;28;19916;-85
2023/01/20 03:12:36;;;;;;;;;;;-0.50;99.90;;;;;;5052391;28;19915;-86
2023/01/20 03:15:02;;;;;;;;;;;-0.40;99.90;;;;;;5045278;28;19913;-80
2023/01/20 03:17:28;;;;;;;;;;;-0.50;99.90;;;;;;5051430;28;19905;-84
2023/01/20 03:19:54;;;;;;;;;;;-0.40;99.90;;;;;;5050688;28;19909;-82
2023/01/20 03:22:21;;;;;;;;;;;-0.40;99.90;;;;;;5047394;28;19936;-81
2023/01/20 03:24:47;;;;;;;;;;;-0.50;99.90;;;;;;5043404;28;19915;-84
2023/01/20 03:27:13;;;;;;;;;;;-0.50;99.90;;;;;;5051734;28;20281;-83
2023/01/20 03:29:39;;;;;;;;;;;-0.50;99.90;;;;;;5048471;28;19913;-84
2023/01/20 03:32:07;;;;;;;;;;;-0.50;99.90;;;;;;5032197;28;19940;-84
2023/01/20 03:34:34;;;;;;;;;;;-0.60;99.90;;;;;;5031114;28;19913;-84
2023/01/20 03:37:01;;;;;;;;;;;-0.60;99.90;;;;;;5031416;28;19914;-84
2023/01/20 03:39:27;;;;;;;;;;;-0.70;99.90;;;;;;5041369;28;19913;-84
2023/01/20 03:41:53;;;;;;;;;;;-0.70;99.90;;;;;;5051538;28;19936;-85
2023/01/20 03:44:30;;;;;;;;;;;-0.70;99.90;;;;;;5050498;28;19913;-84
2023/01/20 03:47:18;;;;;;;;;;;-0.80;99.90;;;;;;5052489;28;19909;-84
2023/01/20 03:49:49;;;;;;;;;;;-0.80;99.90;;;;;;5052146;28;20277;-85
2023/01/20 03:52:24;;;;;;;;;;;-0.80;99.90;;;;;;5061793;28;19908;-84
2023/01/20 03:54:53;;;;;;;;;;;-0.80;99.90;;;;;;5043390;28;19909;-84
2023/01/20 03:57:25;;;;;;;;;;;-0.80;99.90;;;;;;5044487;28;20338;-83
2023/01/20 03:59:51;;;;;;;;;;;-0.90;99.90;;;;;;5069290;28;19921;-86
2023/01/20 04:02:18;;;;;;;;;;;-0.90;99.90;;;;;;5036915;28;19917;-84
2023/01/20 04:04:46;;;;;;;;;;;-0.90;99.90;;;;;;5048361;28;19908;-83
2023/01/20 04:07:17;;;;;;;;;;;-0.90;99.90;;;;;;5045267;28;20290;-85
2023/01/20 04:09:46;;;;;;;;;;;-1.00;99.90;;;;;;5052164;28;19913;-83
2023/01/20 04:12:12;;;;;;;;;;;-1.10;99.90;;;;;;5051519;28;19975;-84
2023/01/20 04:14:38;;;;;;;;;;;-1.20;99.90;;;;;;5045508;28;20346;-85
2023/01/20 04:17:06;;;;;;;;;;;-1.30;99.90;;;;;;5046801;28;19915;-85
2023/01/20 04:19:32;;;;;;;;;;;-1.40;99.90;;;;;;5050616;28;20274;-87
2023/01/20 04:22:04;;;;;;;;;;;-1.40;99.90;;;;;;5058299;28;19917;-85
2023/01/20 04:24:33;;;;;;;;;;;-1.50;99.90;;;;;;5057772;28;19908;-84
2023/01/20 04:26:59;;;;;;;;;;;-1.50;99.90;;;;;;5056651;28;20307;-85
2023/01/20 04:29:25;;;;;;;;;;;-1.60;99.90;;;;;;5054056;28;19920;-86
2023/01/20 04:31:56;;;;;;;;;;;-1.60;99.90;;;;;;5055909;28;19948;-85
2023/01/20 04:34:22;;;;;;;;;;;-1.70;99.90;;;;;;5055288;28;19913;-86
2023/01/20 04:36:48;;;;;;;;;;;-1.70;99.90;;;;;;5055222;28;19978;-85
2023/01/20 04:39:14;;;;;;;;;;;-1.80;99.90;;;;;;5053481;28;19908;-85
2023/01/20 04:41:40;;;;;;;;;;;-1.90;99.90;;;;;;5055072;28;20003;-84
2023/01/20 04:44:06;;;;;;;;;;;-1.90;99.90;;;;;;5054584;28;19944;-83
2023/01/20 04:46:32;;;;;;;;;;;-1.90;99.90;;;;;;5055500;28;19963;-83
2023/01/20 04:48:58;;;;;;;;;;;-2.00;99.90;;;;;;5049068;28;19948;-81
2023/01/20 04:51:24;;;;;;;;;;;-2.00;99.90;;;;;;5054756;28;20148;-83
2023/01/20 04:53:50;;;;;;;;;;;-2.10;99.90;;;;;;5042828;28;19905;-85
2023/01/20 04:56:16;;;;;;;;;;;-2.10;99.90;;;;;;5048617;28;20350;-84
2023/01/20 04:58:42;;;;;;;;;;;-2.10;99.90;;;;;;5053718;28;19944;-82
2023/01/20 05:01:08;;;;;;;;;;;-2.10;99.90;;;;;;5054113;28;19920;-84
2023/01/20 05:03:34;;;;;;;;;;;-2.20;99.90;;;;;;5065838;28;20304;-80
2023/01/20 05:06:00;;;;;;;;;;;-2.20;99.90;;;;;;5075766;28;19913;-79
2023/01/20 05:08:26;;;;;;;;;;;-2.20;99.90;;;;;;5057202;28;19933;-79
2023/01/20 05:10:52;;;;;;;;;;;-2.20;99.90;;;;;;5051900;28;20020;-80
2023/01/20 05:13:18;;;;;;;;;;;-2.10;99.90;;;;;;5061426;28;20298;-79
2023/01/20 05:15:44;;;;;;;;;;;-2.10;99.90;;;;;;5058887;28;19908;-79
2023/01/20 05:18:10;;;;;;;;;;;-2.20;99.90;;;;;;5051577;28;20362;-79
2023/01/20 05:20:36;;;;;;;;;;;-2.30;99.90;;;;;;5050659;28;19908;-79
2023/01/20 05:23:02;;;;;;;;;;;-2.30;99.90;;;;;;5040197;28;20346;-79
2023/01/20 05:25:28;;;;;;;;;;;-2.40;99.90;;;;;;5053116;28;19909;-80
2023/01/20 05:27:54;;;;;;;;;;;-2.40;99.90;;;;;;5054162;28;20407;-78
2023/01/20 05:30:20;;;;;;;;;;;-2.50;99.90;;;;;;5051878;28;20273;-80
2023/01/20 05:32:48;;;;;;;;;;;-2.50;99.90;;;;;;5056675;28;19981;-81
2023/01/20 05:35:14;;;;;;;;;;;-2.50;99.90;;;;;;5055813;28;19916;-81
2023/01/20 05:37:40;;;;;;;;;;;-2.60;99.90;;;;;;5056610;28;20255;-80
2023/01/20 05:40:06;;;;;;;;;;;-2.60;99.90;;;;;;5035814;28;19916;-80
2023/01/20 05:42:32;;;;;;;;;;;-2.60;99.90;;;;;;5054664;28;19920;-81
2023/01/20 05:44:58;;;;;;;;;;;-2.70;99.90;;;;;;5054613;28;19911;-80
2023/01/20 05:47:24;;;;;;;;;;;-2.80;99.90;;;;;;5054065;28;20349;-80
2023/01/20 05:49:50;;;;;;;;;;;-2.80;99.90;;;;;;5052829;28;19917;-80
2023/01/20 05:52:16;;;;;;;;;;;-2.90;99.90;;;;;;5052406;28;19915;-81
2023/01/20 05:54:42;;;;;;;;;;;-2.90;99.90;;;;;;5053088;28;19963;-80
2023/01/20 05:57:08;;;;;;;;;;;-2.90;99.90;;;;;;5053967;28;19909;-80
2023/01/20 05:59:34;;;;;;;;;;;-2.90;99.90;;;;;;5028059;28;19913;-80
2023/01/20 06:02:00;;;;;;;;;;;-2.80;99.90;;;;;;5049576;28;19985;-83
2023/01/20 06:04:26;;;;;;;;;;;-2.90;99.90;;;;;;5035725;28;19948;-80
2023/01/20 06:06:52;;;;;;;;;;;-2.90;99.90;;;;;;5034920;28;19909;-80
2023/01/20 06:09:18;;;;;;;;;;;-3.00;99.90;;;;;;5033372;28;19959;-81
2023/01/20 06:11:44;;;;;;;;;;;-3.00;99.90;;;;;;5052260;28;19915;-80
2023/01/20 06:14:10;;;;;;;;;;;-3.00;99.90;;;;;;5045011;28;19913;-81
2023/01/20 06:16:36;;;;;;;;;;;-3.00;99.90;;;;;;5064222;28;19919;-84
2023/01/20 06:19:02;;;;;;;;;;;-3.10;99.90;;;;;;5053929;28;19908;-85
2023/01/20 06:21:28;;;;;;;;;;;-3.10;99.90;;;;;;5053038;28;20415;-85
2023/01/20 06:23:53;;;;;;;;;;;-3.10;99.90;;;;;;5054568;28;20416;-85
2023/01/20 06:26:19;;;;;;;;;;;-3.10;99.90;;;;;;5068448;28;19913;-85
2023/01/20 06:28:45;;;;;;;;;;;-3.10;99.90;;;;;;5042662;28;20015;-85
2023/01/20 06:31:13;;;;;;;;;;;-3.10;99.90;;;;;;5031107;28;20281;-80
2023/01/20 06:33:39;;;;;;;;;;;-3.20;99.90;;;;;;5040860;28;19908;-86
2023/01/20 06:36:09;;;;;;;;;;;-3.20;99.90;;;;;;5049060;28;19909;-87
2023/01/20 06:38:35;;;;;;;;;;;-3.30;99.90;;;;;;5054380;28;20285;-87
2023/01/20 06:41:03;;;;;;;;;;;-3.10;99.90;;;;;;5056969;28;19909;-87
2023/01/20 06:43:29;;;;;;;;;;;-3.10;99.90;;;;;;5058136;28;20281;-86
2023/01/20 06:46:02;;;;;;;;;;;-3.10;99.90;;;;;;5056098;28;19915;-87
2023/01/20 06:48:28;;;;;;;;;;;-3.00;99.90;;;;;;5050784;28;19924;-87
2023/01/20 06:51:04;;;;;;;;;;;-3.00;99.90;;;;;;5047531;28;20265;-87
2023/01/20 06:53:30;;;;;;;;;;;-3.00;99.90;;;;;;5055722;28;20384;-87
2023/01/20 06:55:57;;;;;;;;;;;-3.10;99.90;;;;;;5054884;28;19909;-85
2023/01/20 06:58:25;;;;;;;;;;;-3.20;99.90;;;;;;5053830;28;19909;-85
2023/01/20 07:00:51;;;;;;;;;;;-3.10;99.90;;;;;;5046914;28;19927;-86
2023/01/20 07:03:17;;;;;;;;;;;-3.20;99.90;;;;;;5033878;28;19924;-86
2023/01/20 07:05:43;;;;;;;;;;;-3.30;99.90;;;;;;5055647;28;19916;-85
2023/01/20 07:08:10;;;;;;;;;;;-3.30;99.90;;;;;;5046199;28;19916;-81
2023/01/20 07:10:36;;;;;;;;;;;-3.20;99.90;;;;;;5035770;28;19912;-86
2023/01/20 07:13:02;;;;;;;;;;;-3.10;99.90;;;;;;5033594;28;19913;-86
2023/01/20 07:15:28;;;;;;;;;;;-3.00;99.90;;;;;;5034373;28;19996;-86
2023/01/20 07:17:54;;;;;;;;;;;-3.10;99.90;;;;;;5035213;28;19905;-85
2023/01/20 07:20:20;;;;;;;;;;;-3.00;99.90;;;;;;5037515;28;19951;-84
2023/01/20 07:22:46;;;;;;;;;;;-2.80;99.90;;;;;;5048403;28;19967;-82
2023/01/20 07:25:12;;;;;;;;;;;-2.70;99.90;;;;;;5049976;28;19982;-84
2023/01/20 07:27:38;;;;;;;;;;;-2.60;99.90;;;;;;5058517;28;19916;-83
2023/01/20 07:30:04;;;;;;;;;;;-2.60;99.90;;;;;;5053916;28;19913;-84
2023/01/20 07:32:30;;;;;;;;;;;-2.60;99.90;;;;;;5037554;28;19909;-81
2023/01/20 07:34:56;;;;;;;;;;;-2.50;99.90;;;;;;5037448;28;19948;-84
2023/01/20 07:37:22;;;;;;;;;;;-2.70;99.90;;;;;;5034877;28;19913;-84
2023/01/20 07:39:48;;;;;;;;;;;-2.90;99.90;;;;;;5048139;28;19915;-85
2023/01/20 07:42:14;;;;;;;;;;;-2.90;99.10;;;;;;5034949;28;20283;-85
2023/01/20 07:44:40;;;;;;;;;;;-3.00;94.30;;;;;;5034450;28;19935;-83
2023/01/20 07:47:06;;;;;;;;;;;-3.00;91.90;;;;;;5033911;28;20000;-83
2023/01/20 07:49:32;;;;;;;;;;;-3.10;90.20;;;;;;5034890;28;20396;-81
2023/01/20 07:51:58;;;;;;;;;;;-3.10;88.70;;;;;;5036699;28;19952;-80
2023/01/20 07:54:24;;;;;;;;;;;-3.10;88.00;;;;;;5034305;28;19912;-81
2023/01/20 07:56:50;;;;;;;;;;;-3.10;86.60;;;;;;5036012;28;20259;-80
2023/01/20 07:59:16;;;;;;;;;;;-3.10;86.20;;;;;;5051592;28;19904;-80
2023/01/20 08:01:42;;;;;;;;;;;-3.10;86.20;;;;;;5055738;28;19936;-80
2023/01/20 08:04:08;;;;;;;;;;;-3.10;90.90;;;;;;5052971;28;19917;-81
2023/01/20 08:06:34;;;;;;;;;;;-3.00;93.50;;;;;;5054763;28;20242;-81
2023/01/20 08:09:00;;;;;;;;;;;-3.00;95.80;;;;;;5055357;28;19908;-80
2023/01/20 08:11:26;;;;;;;;;;;-2.90;98.30;;;;;;5055192;28;19908;-80
2023/01/20 08:13:52;;;;;;;;;;;-2.80;99.90;;;;;;5054327;28;20440;-81
2023/01/20 08:16:19;;;;;;;;;;;-2.70;99.90;;;;;;5055035;28;19908;-80
2023/01/20 08:18:45;;;;;;;;;;;-2.50;99.90;;;;;;5070556;28;19916;-80
2023/01/20 08:21:18;;;;;;;;;;;-2.30;99.90;;;;;;5055561;28;19915;-81
2023/01/20 08:23:44;;;;;;;;;;;-2.10;99.90;;;;;;5045705;28;19924;-81
2023/01/20 08:26:10;;;;;;;;;;;-2.00;99.90;;;;;;5050553;28;19908;-80
2023/01/20 08:28:36;;;;;;;;;;;-1.70;99.90;;;;;;5049087;28;19948;-81
2023/01/20 08:31:04;;;;;;;;;;;-1.70;99.90;;;;;;5047237;28;19941;-81
2023/01/20 08:33:29;;;;;;;;;;;-1.70;99.90;;;;;;5035042;28;19912;-82
2023/01/20 08:35:58;;;;;;;;;;;-1.60;99.90;;;;;;5035617;28;20346;-81
2023/01/20 08:38:24;;;;;;;;;;;-1.50;99.90;;;;;;5033604;28;19916;-81
2023/01/20 08:40:50;;;;;;;;;;;-1.40;99.90;;;;;;5043868;28;19904;-81
2023/01/20 08:43:15;;;;;;;;;;;-1.20;99.90;;;;;;5046285;28;20314;-81
2023/01/20 08:45:42;;;;;;;;;;;-0.90;99.90;;;;;;5035593;28;19931;-81
2023/01/20 08:48:09;;;;;;;;;;;-0.60;99.90;;;;;;5034064;28;19916;-82
2023/01/20 08:50:35;;;;;;;;;;;-0.40;99.90;;;;;;5045795;28;19916;-82
2023/01/20 08:53:01;;;;;;;;;;;-0.20;99.90;;;;;;5054694;28;19920;-81
2023/01/20 08:55:27;;;;;;;;;;;0.00;99.90;;;;;;5033277;28;19909;-83
2023/01/20 08:57:53;;;;;;;;;;;0.10;99.90;;;;;;5034136;28;19916;-83
2023/01/20 09:00:19;;;;;;;;;;;0.10;99.90;;;;;;5033698;28;19928;-83
2023/01/20 09:02:45;;;;;;;;;;;0.20;99.90;;;;;;5035216;28;19920;-83
2023/01/20 09:05:11;;;;;;;;;;;0.20;99.90;;;;;;5048681;28;19972;-83
2023/01/20 09:07:37;;;;;;;;;;;0.20;99.90;;;;;;5033374;28;19909;-84
2023/01/20 09:10:03;;;;;;;;;;;0.30;97.90;;;;;;5035137;28;19967;-83
2023/01/20 09:12:29;;;;;;;;;;;0.30;94.40;;;;;;5034983;28;19916;-83
2023/01/20 09:14:55;;;;;;;;;;;0.40;94.30;;;;;;5052282;28;19908;-83
2023/01/20 09:17:21;;;;;;;;;;;0.40;90.90;;;;;;5052831;28;19931;-83
2023/01/20 09:19:47;;;;;;;;;;;0.50;86.70;;;;;;5054599;28;20419;-83
2023/01/20 09:22:13;;;;;;;;;;;0.50;80.60;;;;;;5054714;28;20364;-83
2023/01/20 09:24:39;;;;;;;;;;;0.60;73.70;;;;;;5055361;28;20334;-82
2023/01/20 09:27:05;;;;;;;;;;;0.70;65.30;;;;;;5044771;28;19906;-83
2023/01/20 09:29:31;;;;;;;;;;;0.80;58.00;;;;;;5062125;28;19995;-83
2023/01/20 09:32:00;;;;;;;;;;;0.90;50.60;;;;;;5061612;28;19913;-82
2023/01/20 09:34:28;;;;;;;;;;;1.00;37.50;;;;;;5048261;28;19915;-83
2023/01/20 09:36:55;;;;;;;;;;;1.10;27.00;;;;;;5055212;28;20254;-82
2023/01/20 09:45:24;;;;;;;;;;;1.60;1.00;;;;;;5054245;28;19921;-82
2023/01/20 09:47:52;;;;;;;;;;;1.70;1.00;;;;;;5052225;28;20338;-82
2023/01/20 09:53:25;;;;;;;;;;;1.90;1.00;;;;;;5058816;28;19912;-82
2023/01/20 09:55:52;;;;;;;;;;;2.10;1.00;;;;;;5054191;28;19909;-81
2023/01/20 09:58:36;;;;;;;;;;;2.20;1.00;;;;;;5050903;28;19915;-82
2023/01/20 10:01:17;;;;;;;;;;;2.30;1.00;;;;;;5053562;28;19925;-82
2023/01/20 10:04:15;;;;;;;;;;;2.20;1.00;;;;;;5053841;28;20282;-82
2023/01/20 10:06:47;;;;;;;;;;;2.20;1.00;;;;;;5015133;28;19909;-81
2023/01/20 10:09:16;;;;;;;;;;;2.30;1.00;;;;;;5058879;28;19919;-81
2023/01/20 10:11:43;;;;;;;;;;;2.40;1.00;;;;;;5050383;28;19920;-81
2023/01/20 10:14:16;;;;;;;;;;;2.30;1.00;;;;;;5036555;28;19909;-82
2023/01/20 10:17:02;;;;;;;;;;;2.30;1.00;;;;;;5033942;28;20281;-80
2023/01/20 10:19:33;;;;;;;;;;;2.50;1.00;;;;;;5043533;28;19916;-80
2023/01/20 10:22:05;;;;;;;;;;;2.50;1.00;;;;;;5048805;28;19984;-80
2023/01/20 10:24:32;;;;;;;;;;;2.40;1.00;;;;;;5032831;28;19916;-79
2023/01/20 10:27:02;;;;;;;;;;;2.40;1.00;;;;;;5032659;28;19913;-81
2023/01/20 10:29:33;;;;;;;;;;;2.40;1.00;;;;;;5032680;28;19916;-84
2023/01/20 10:32:00;;;;;;;;;;;2.40;1.00;;;;;;5046177;28;20393;-80
2023/01/20 10:34:46;;;;;;;;;;;2.30;1.00;;;;;;5032604;28;19924;-79
2023/01/20 10:37:14;;;;;;;;;;;2.30;1.00;;;;;;5045277;28;20108;-82
2023/01/20 10:39:52;;;;;;;;;;;2.40;1.00;;;;;;5052485;28;19905;-80
2023/01/20 10:42:18;;;;;;;;;;;2.40;1.00;;;;;;5052274;28;19916;-78
2023/01/20 10:44:45;;;;;;;;;;;2.50;1.00;;;;;;5052833;28;19924;-80
2023/01/20 10:47:11;;;;;;;;;;;2.70;1.00;;;;;;5050425;28;19912;-80
2023/01/20 10:49:40;;;;;;;;;;;2.80;1.00;;;;;;5054868;28;20093;-80
2023/01/20 10:52:18;;;;;;;;;;;2.80;1.00;;;;;;5052695;28;19905;-79
2023/01/20 10:54:51;;;;;;;;;;;2.80;1.00;;;;;;5046482;28;19909;-80
2023/01/20 10:57:17;;;;;;;;;;;2.80;1.00;;;;;;5033698;28;19913;-77
2023/01/20 10:59:45;;;;;;;;;;;2.80;1.00;;;;;;5034373;28;19913;-80
2023/01/20 11:02:19;;;;;;;;;;;2.90;1.00;;;;;;5036312;28;19909;-80
2023/01/20 11:04:49;;;;;;;;;;;3.00;1.00;;;;;;5034759;28;20377;-80
2023/01/20 11:07:16;;;;;;;;;;;3.10;1.00;;;;;;5051832;28;20227;-79
2023/01/20 11:09:43;;;;;;;;;;;3.10;1.00;;;;;;5054581;28;20396;-80
2023/01/20 11:12:11;;;;;;;;;;;3.00;1.00;;;;;;5055209;28;19912;-81
2023/01/20 11:14:37;;;;;;;;;;;3.00;1.00;;;;;;5052308;28;20238;-81
2023/01/20 11:17:05;;;;;;;;;;;3.00;1.00;;;;;;5051121;28;19908;-81
2023/01/20 11:19:43;;;;;;;;;;;2.90;1.00;;;;;;5052326;28;19912;-81
2023/01/20 11:22:10;;;;;;;;;;;2.90;1.00;;;;;;5052758;28;19909;-80
2023/01/20 11:24:41;;;;;;;;;;;2.80;1.00;;;;;;5035756;28;19920;-81
2023/01/20 11:27:19;;;;;;;;;;;2.80;1.00;;;;;;5031635;28;19909;-81
2023/01/20 11:30:04;;;;;;;;;;;2.80;1.00;;;;;;5040396;28;19920;-79
2023/01/20 11:32:34;;;;;;;;;;;2.80;1.00;;;;;;5044660;28;19909;-82
2023/01/20 11:35:16;;;;;;;;;;;2.90;1.00;;;;;;5052188;28;20390;-80
2023/01/20 11:37:42;;;;;;;;;;;3.00;1.00;;;;;;5051321;28;19920;-81
2023/01/20 11:40:20;;;;;;;;;;;3.20;1.00;;;;;;5052538;28;19909;-79
2023/01/20 11:42:47;;;;;;;;;;;3.20;1.00;;;;;;5066943;28;19983;-78
2023/01/20 11:45:25;;;;;;;;;;;3.20;1.00;;;;;;5052389;28;20318;-79
2023/01/20 11:48:02;;;;;;;;;;;3.40;1.00;;;;;;5040970;28;19909;-79
2023/01/20 11:50:36;;;;;;;;;;;3.50;1.00;;;;;;5032189;28;19959;-78
2023/01/20 11:53:11;;;;;;;;;;;3.70;1.00;;;;;;5032551;28;19913;-80
2023/01/20 11:55:45;;;;;;;;;;;3.60;1.00;;;;;;5045594;28;20480;-79
2023/01/20 11:58:15;;;;;;;;;;;3.60;1.00;;;;;;5050667;28;20277;-80
2023/01/20 12:00:42;;;;;;;;;;;3.50;1.00;;;;;;5045351;28;19921;-80
2023/01/20 12:03:24;;;;;;;;;;;3.50;1.00;;;;;;5032802;28;19909;-81
2023/01/20 12:05:50;;;;;;;;;;;3.40;1.00;;;;;;5032381;28;20350;-77
2023/01/20 12:08:20;;;;;;;;;;;3.30;1.00;;;;;;5031030;28;19909;-75
2023/01/20 12:10:46;;;;;;;;;;;3.40;1.00;;;;;;5041266;28;19909;-78
2023/01/20 12:13:17;;;;;;;;;;;3.50;1.00;;;;;;5035858;28;19928;-78
2023/01/20 12:15:45;;;;;;;;;;;3.50;1.00;;;;;;5032232;28;19931;-78
2023/01/20 12:18:17;;;;;;;;;;;3.30;1.00;;;;;;5046096;28;19954;-78
2023/01/20 12:20:59;;;;;;;;;;;3.30;1.00;;;;;;5048807;28;20234;-78
2023/01/20 12:23:31;;;;;;;;;;;3.40;1.00;;;;;;5031762;28;20259;-77
2023/01/20 12:26:01;;;;;;;;;;;3.40;1.00;;;;;;5031266;28;19905;-77
2023/01/20 12:29:06;;;;;;;;;;;3.60;1.00;;;;;;5031238;28;19908;-77
2023/01/20 12:31:32;;;;;;;;;;;3.80;1.00;;;;;;5006369;28;19921;-78
2023/01/20 12:34:11;;;;;;;;;;;3.90;1.00;;;;;;5009993;28;19921;-78
2023/01/20 12:36:37;;;;;;;;;;;3.90;1.00;;;;;;5010136;28;19913;-77
2023/01/20 12:39:09;;;;;;;;;;;3.90;1.00;;;;;;5013073;28;20251;-77
2023/01/20 12:41:53;;;;;;;;;;;3.90;1.00;;;;;;5011549;28;19912;-77
2023/01/20 12:44:31;;;;;;;;;;;3.90;99.90;;;;;;5006294;28;20275;-77
2023/01/20 12:47:03;;;;;;;;;;;3.70;99.90;;;;;;5008561;28;19906;-77
2023/01/20 12:49:43;;;;;;;;;;;3.70;1.00;;;;;;4997531;28;19925;-77
2023/01/20 12:52:15;;;;;;;;;;;3.70;1.00;;;;;;5004011;28;20247;-77
2023/01/20 12:54:40;;;;;;;;;;;3.70;1.00;;;;;;5007668;28;19924;-78
2023/01/20 12:57:19;;;;;;;;;;;3.80;99.90;;;;;;5009971;28;20263;-77
2023/01/20 12:59:45;;;;;;;;;;;3.90;99.90;;;;;;5008915;28;20354;-77
2023/01/20 13:02:20;;;;;;;;;;;4.00;99.90;;;;;;5024181;28;19904;-77
2023/01/20 13:04:46;;;;;;;;;;;4.10;99.90;;;;;;5032944;28;20253;-77
2023/01/20 13:07:17;;;;;;;;;;;4.30;99.90;;;;;;5044483;28;19905;-77
2023/01/20 13:09:46;;;;;;;;;;;4.40;99.90;;;;;;5035240;28;19916;-77
2023/01/20 13:12:20;;;;;;;;;;;4.40;99.90;;;;;;5034825;28;19905;-77
2023/01/20 13:14:57;;;;;;;;;;;4.30;99.90;;;;;;5040266;28;20346;-77
2023/01/20 13:17:36;;;;;;;;;;;4.30;99.90;;;;;;5039748;28;19924;-77
2023/01/20 13:20:04;;;;;;;;;;;4.30;99.90;;;;;;5049955;28;19908;-77
2023/01/20 13:22:30;;;;;;;;;;;4.40;99.90;;;;;;5055090;28;19905;-78
2023/01/20 13:24:57;;;;;;;;;;;4.40;99.90;;;;;;5054591;28;19909;-79
2023/01/20 13:27:23;;;;;;;;;;;4.30;99.90;;;;;;5052590;28;20334;-78
2023/01/20 13:29:49;;;;;;;;;;;4.20;99.90;;;;;;5054279;28;19955;-79
2023/01/20 13:32:28;;;;;;;;;;;4.10;99.90;;;;;;5054591;28;19907;-78
2023/01/20 13:34:55;;;;;;;;;;;4.10;99.90;;;;;;5054483;28;19905;-78
2023/01/20 13:37:24;;;;;;;;;;;3.90;99.90;;;;;;5053237;28;19901;-78
2023/01/20 13:39:50;;;;;;;;;;;3.90;99.90;;;;;;5054577;28;19905;-78
2023/01/20 13:42:44;;;;;;;;;;;4.00;99.90;;;;;;5054260;28;19911;-78
2023/01/20 13:45:10;;;;;;;;;;;4.10;99.90;;;;;;5054422;28;19919;-78
2023/01/20 13:47:52;;;;;;;;;;;4.20;99.90;;;;;;5061861;28;19904;-79
2023/01/20 13:50:24;;;;;;;;;;;4.20;99.90;;;;;;5073787;28;19905;-78
2023/01/20 13:52:50;;;;;;;;;;;4.20;99.90;;;;;;5071110;28;19926;-79
2023/01/20 13:55:26;;;;;;;;;;;4.20;99.90;;;;;;5059763;28;19901;-78
2023/01/20 13:57:52;;;;;;;;;;;4.20;99.90;;;;;;5054669;28;19919;-79
2023/01/20 14:00:18;;;;;;;;;;;4.20;99.90;;;;;;5054326;28;19917;-78
2023/01/20 14:02:45;;;;;;;;;;;4.30;99.90;;;;;;5053759;28;19908;-78
2023/01/20 14:05:22;;;;;;;;;;;4.30;99.90;;;;;;5059515;28;19924;-78
2023/01/20 14:07:48;;;;;;;;;;;4.30;99.90;;;;;;5045724;28;19911;-78
2023/01/20 14:10:14;;;;;;;;;;;4.40;99.90;;;;;;5047469;28;19900;-78
2023/01/20 14:12:40;;;;;;;;;;;4.50;99.90;;;;;;5050346;28;19905;-78
2023/01/20 14:15:20;;;;;;;;;;;4.50;99.90;;;;;;5044918;28;19905;-78
2023/01/20 14:17:51;;;;;;;;;;;4.50;99.90;;;;;;5044432;28;19911;-79
2023/01/20 14:20:25;;;;;;;;;;;4.40;99.90;;;;;;5050826;28;19994;-78
2023/01/20 14:22:51;;;;;;;;;;;4.30;99.90;;;;;;5040947;28;19905;-77
2023/01/20 14:25:26;;;;;;;;;;;4.20;99.90;;;;;;5041116;28;19935;-77
2023/01/20 14:27:52;;;;;;;;;;;4.20;99.90;;;;;;5047872;28;19920;-77
2023/01/20 14:30:25;;;;;;;;;;;4.20;99.90;;;;;;5038759;28;19959;-77
2023/01/20 14:32:52;;;;;;;;;;;4.20;99.90;;;;;;5048665;28;19908;-77
2023/01/20 14:35:29;;;;;;;;;;;4.20;99.90;;;;;;5038814;28;19904;-79
2023/01/20 14:37:56;;;;;;;;;;;4.20;99.90;;;;;;5032234;28;19915;-77
2023/01/20 14:40:23;;;;;;;;;;;4.20;99.90;;;;;;5043300;28;19916;-77
2023/01/20 14:42:59;;;;;;;;;;;4.20;99.90;;;;;;5052520;28;20272;-78